sensor_id;sensor_type;location;lat;lon;timestamp;temperature;humidity
72919;SHT30;68407;55.694;26.994;2024-01-15T00:03:24;-1.1;89.2
72919;SHT30;68407;55.694;26.994;2024-01-15T00:07:52;-1.1;89.3
72919;SHT30;68407;55.694;26.994;2024-01-15T00:23:24;-1;89.1
72919;SHT30;68407;55.694;26.994;2024-01-15T00:28:00;-0.9;89.1
72919;SHT30;68407;55.694;26.994;2024-01-15T00:33:08;-0.8;89
72919;SHT30;68407;55.694;26.994;2024-01-15T00:37:34;-0.7;88.9
72919;SHT30;68407;55.694;26.994;2024-01-15T00:42:42;-0.7;88.7
72919;SHT30;68407;55.694;26.994;2024-01-15T00:47:42;-0.6;88.6
72919;SHT30;68407;55.694;26.994;2024-01-15T00:52:42;-0.6;88.4
72919;SHT30;68407;55.694;26.994;2024-01-15T00:58:10;-0.6;88.4
72919;SHT30;68407;55.694;26.994;2024-01-15T01:03:10;-0.5;88.4
72919;SHT30;68407;55.694;26.994;2024-01-15T01:08:22;-0.5;88.6
72919;SHT30;68407;55.694;26.994;2024-01-15T01:12:50;-0.5;88.5
72919;SHT30;68407;55.694;26.994;2024-01-15T01:17:48;-0.4;88.1
72919;SHT30;68407;55.694;26.994;2024-01-15T01:23:24;-0.4;88
72919;SHT30;68407;55.694;26.994;2024-01-15T01:28:14;-0.4;88
72919;SHT30;68407;55.694;26.994;2024-01-15T01:32:34;-0.3;88
72919;SHT30;68407;55.694;26.994;2024-01-15T01:38:04;-0.3;87.8
72919;SHT30;68407;55.694;26.994;2024-01-15T01:42:52;-0.3;87.9
72919;SHT30;68407;55.694;26.994;2024-01-15T01:48:24;-0.2;87.8
72919;SHT30;68407;55.694;26.994;2024-01-15T01:52:58;-0.2;87.7
72919;SHT30;68407;55.694;26.994;2024-01-15T01:58:24;-0.2;87.5
72919;SHT30;68407;55.694;26.994;2024-01-15T02:02:34;-0.3;87.3
72919;SHT30;68407;55.694;26.994;2024-01-15T02:08:10;-0.3;87.4
72919;SHT30;68407;55.694;26.994;2024-01-15T02:12:34;-0.2;87.9
72919;SHT30;68407;55.694;26.994;2024-01-15T02:17:58;-0.2;88.2
72919;SHT30;68407;55.694;26.994;2024-01-15T02:22:34;-0.1;88
72919;SHT30;68407;55.694;26.994;2024-01-15T02:27:50;-0.1;88.1
72919;SHT30;68407;55.694;26.994;2024-01-15T02:32:34;0;88.2
72919;SHT30;68407;55.694;26.994;2024-01-15T02:37:42;0;88.5
72919;SHT30;68407;55.694;26.994;2024-01-15T02:43:20;0;88.7
72919;SHT30;68407;55.694;26.994;2024-01-15T02:47:50;0;88.8
72919;SHT30;68407;55.694;26.994;2024-01-15T02:53:24;0.1;89.1
72919;SHT30;68407;55.694;26.994;2024-01-15T02:58:00;0.1;89.2
72919;SHT30;68407;55.694;26.994;2024-01-15T03:03:14;0.2;89.3
72919;SHT30;68407;55.694;26.994;2024-01-15T03:07:34;0.3;89.1
72919;SHT30;68407;55.694;26.994;2024-01-15T03:12:44;0.3;88.9
72919;SHT30;68407;55.694;26.994;2024-01-15T03:18:25;0.2;89
72919;SHT30;68407;55.694;26.994;2024-01-15T03:23:24;0.2;89
72919;SHT30;68407;55.694;26.994;2024-01-15T03:27:52;0.2;89
72919;SHT30;68407;55.694;26.994;2024-01-15T03:33:22;0.2;89.2
72919;SHT30;68407;55.694;26.994;2024-01-15T03:38:26;0.3;89.3
72919;SHT30;68407;55.694;26.994;2024-01-15T03:43:09;0.2;89.5
72919;SHT30;68407;55.694;26.994;2024-01-15T03:48:20;0.3;89.5
72919;SHT30;68407;55.694;26.994;2024-01-15T03:52:34;0.4;89.5
72919;SHT30;68407;55.694;26.994;2024-01-15T03:57:52;0.4;89.4
72919;SHT30;68407;55.694;26.994;2024-01-15T04:02:34;0.5;89.3
72919;SHT30;68407;55.694;26.994;2024-01-15T04:07:54;0.5;89.2
72919;SHT30;68407;55.694;26.994;2024-01-15T04:13:00;0.5;89.1
72919;SHT30;68407;55.694;26.994;2024-01-15T04:18:05;0.5;89.1
72919;SHT30;68407;55.694;26.994;2024-01-15T04:22:48;0.5;89.2
72919;SHT30;68407;55.694;26.994;2024-01-15T04:28:24;0.5;89.3
72919;SHT30;68407;55.694;26.994;2024-01-15T04:33:10;0.5;89.4
72919;SHT30;68407;55.694;26.994;2024-01-15T04:37:50;0.5;89.3
72919;SHT30;68407;55.694;26.994;2024-01-15T04:42:53;0.5;89.4
72919;SHT30;68407;55.694;26.994;2024-01-15T04:48:04;0.5;89.5
72919;SHT30;68407;55.694;26.994;2024-01-15T04:53:14;0.5;89.5
72919;SHT30;68407;55.694;26.994;2024-01-15T04:57:54;0.5;89.6
72919;SHT30;68407;55.694;26.994;2024-01-15T05:03:12;0.5;89.8
72919;SHT30;68407;55.694;26.994;2024-01-15T05:08:24;0.5;89.9
72919;SHT30;68407;55.694;26.994;2024-01-15T05:13:25;0.6;89.9
72919;SHT30;68407;55.694;26.994;2024-01-15T05:18:00;0.6;90
72919;SHT30;68407;55.694;26.994;2024-01-15T05:23:25;0.5;90.2
72919;SHT30;68407;55.694;26.994;2024-01-15T05:27:35;0.5;90.3
72919;SHT30;68407;55.694;26.994;2024-01-15T05:32:35;0.6;90.3
72919;SHT30;68407;55.694;26.994;2024-01-15T05:37:35;0.6;90.2
72919;SHT30;68407;55.694;26.994;2024-01-15T05:42:55;0.6;90.3
72919;SHT30;68407;55.694;26.994;2024-01-15T05:47:35;0.6;90.3
72919;SHT30;68407;55.694;26.994;2024-01-15T05:52:35;0.6;90.4
72919;SHT30;68407;55.694;26.994;2024-01-15T05:58:12;0.6;90.4
72919;SHT30;68407;55.694;26.994;2024-01-15T06:03:25;0.6;90.5
72919;SHT30;68407;55.694;26.994;2024-01-15T06:08:23;0.6;90.5
72919;SHT30;68407;55.694;26.994;2024-01-15T06:12:51;0.7;90.5
72919;SHT30;68407;55.694;26.994;2024-01-15T06:18:03;0.7;90.6
72919;SHT30;68407;55.694;26.994;2024-01-15T06:23:23;0.7;90.5
72919;SHT30;68407;55.694;26.994;2024-01-15T06:28:13;0.7;90.4
72919;SHT30;68407;55.694;26.994;2024-01-15T06:32:55;0.7;90.4
72919;SHT30;68407;55.694;26.994;2024-01-15T06:38:05;0.7;90.4
72919;SHT30;68407;55.694;26.994;2024-01-15T06:42:55;0.7;90.4
72919;SHT30;68407;55.694;26.994;2024-01-15T06:48:25;0.7;90.3
72919;SHT30;68407;55.694;26.994;2024-01-15T06:52:35;0.8;90.3
72919;SHT30;68407;55.694;26.994;2024-01-15T06:58:25;0.8;90.1
72919;SHT30;68407;55.694;26.994;2024-01-15T07:02:35;0.8;90.1
72919;SHT30;68407;55.694;26.994;2024-01-15T07:08:11;0.8;90
72919;SHT30;68407;55.694;26.994;2024-01-15T07:12:57;0.9;89.9
72919;SHT30;68407;55.694;26.994;2024-01-15T07:17:43;0.9;89.8
72919;SHT30;68407;55.694;26.994;2024-01-15T07:22:41;1;89.7
72919;SHT30;68407;55.694;26.994;2024-01-15T07:27:35;1;89.5
72919;SHT30;68407;55.694;26.994;2024-01-15T07:32:55;1.1;89.3
72919;SHT30;68407;55.694;26.994;2024-01-15T07:37:51;1.2;89.1
72919;SHT30;68407;55.694;26.994;2024-01-15T07:43:23;1.2;88.8
72919;SHT30;68407;55.694;26.994;2024-01-15T07:48:23;1.3;88.7
72919;SHT30;68407;55.694;26.994;2024-01-15T07:53:25;1.4;88.4
72919;SHT30;68407;55.694;26.994;2024-01-15T07:58:23;1.4;88.3
72919;SHT30;68407;55.694;26.994;2024-01-15T08:03:15;1.5;88.1
72919;SHT30;68407;55.694;26.994;2024-01-15T08:07:35;1.5;87.9
72919;SHT30;68407;55.694;26.994;2024-01-15T08:13:05;1.6;87.6
72919;SHT30;68407;55.694;26.994;2024-01-15T08:18:25;1.6;87.3
72919;SHT30;68407;55.694;26.994;2024-01-15T08:23:25;1.6;87.3
72919;SHT30;68407;55.694;26.994;2024-01-15T08:27:51;1.6;87.2
72919;SHT30;68407;55.694;26.994;2024-01-15T08:33:23;1.6;87.1
72919;SHT30;68407;55.694;26.994;2024-01-15T08:38:23;1.7;87
72919;SHT30;68407;55.694;26.994;2024-01-15T08:43:09;1.8;86.6
72919;SHT30;68407;55.694;26.994;2024-01-15T08:48:25;1.9;86.5
72919;SHT30;68407;55.694;26.994;2024-01-15T08:52:43;1.9;86.5
72919;SHT30;68407;55.694;26.994;2024-01-15T08:57:55;2;86.5
72919;SHT30;68407;55.694;26.994;2024-01-15T09:02:43;2.1;86.2
72919;SHT30;68407;55.694;26.994;2024-01-15T09:07:35;2.1;86
72919;SHT30;68407;55.694;26.994;2024-01-15T09:12:36;2.1;85.9
72919;SHT30;68407;55.694;26.994;2024-01-15T09:18:05;2.1;85.8
72919;SHT30;68407;55.694;26.994;2024-01-15T09:22:35;2.1;85.7
72919;SHT30;68407;55.694;26.994;2024-01-15T09:28:25;2.1;85.6
72919;SHT30;68407;55.694;26.994;2024-01-15T09:33:11;2.1;85.5
72919;SHT30;68407;55.694;26.994;2024-01-15T09:37:35;2;85.5
72919;SHT30;68407;55.694;26.994;2024-01-15T09:42:43;2;85.7
72919;SHT30;68407;55.694;26.994;2024-01-15T09:48:05;2.1;85.7
72919;SHT30;68407;55.694;26.994;2024-01-15T09:53:15;2.1;85.6
72919;SHT30;68407;55.694;26.994;2024-01-15T09:57:35;2.3;85.3
72919;SHT30;68407;55.694;26.994;2024-01-15T10:03:01;2.3;85.1
72919;SHT30;68407;55.694;26.994;2024-01-15T10:08:25;2.2;85.2
72919;SHT30;68407;55.694;26.994;2024-01-15T10:13:23;2.3;85.1
72919;SHT30;68407;55.694;26.994;2024-01-15T10:18:01;2.3;85
72919;SHT30;68407;55.694;26.994;2024-01-15T10:23:13;2.2;85
72919;SHT30;68407;55.694;26.994;2024-01-15T10:28:01;2.2;85.2
72919;SHT30;68407;55.694;26.994;2024-01-15T10:32:35;2.2;85.3
72919;SHT30;68407;55.694;26.994;2024-01-15T10:38:13;2.3;85.3
72919;SHT30;68407;55.694;26.994;2024-01-15T10:42:35;2.3;85
72919;SHT30;68407;55.694;26.994;2024-01-15T10:47:43;2.3;85.1
72919;SHT30;68407;55.694;26.994;2024-01-15T10:52:44;2.3;84.9
72919;SHT30;68407;55.694;26.994;2024-01-15T10:58:11;2.4;85
72919;SHT30;68407;55.694;26.994;2024-01-15T11:03:25;2.4;84.8
72919;SHT30;68407;55.694;26.994;2024-01-15T11:08:25;2.4;84.9
72919;SHT30;68407;55.694;26.994;2024-01-15T11:12:51;2.4;84.8
72919;SHT30;68407;55.694;26.994;2024-01-15T11:18:05;2.4;84.7
72919;SHT30;68407;55.694;26.994;2024-01-15T11:23:39;2.4;84.6
72919;SHT30;68407;55.694;26.994;2024-01-15T11:28:13;2.4;84.6
72919;SHT30;68407;55.694;26.994;2024-01-15T11:32:55;2.5;84.4
72919;SHT30;68407;55.694;26.994;2024-01-15T11:38:05;2.5;84.3
72919;SHT30;68407;55.694;26.994;2024-01-15T11:43:05;2.5;84.4
72919;SHT30;68407;55.694;26.994;2024-01-15T11:48:23;2.5;84.3
72919;SHT30;68407;55.694;26.994;2024-01-15T11:53:00;2.5;84.6
72919;SHT30;68407;55.694;26.994;2024-01-15T11:58:23;2.5;84.3
72919;SHT30;68407;55.694;26.994;2024-01-15T12:02:59;2.5;84.5
72919;SHT30;68407;55.694;26.994;2024-01-15T12:07:39;2.4;84.6
72919;SHT30;68407;55.694;26.994;2024-01-15T12:12:37;2.3;84.9
72919;SHT30;68407;55.694;26.994;2024-01-15T12:17:41;2.2;85.1
72919;SHT30;68407;55.694;26.994;2024-01-15T12:22:51;2.1;85.6
72919;SHT30;68407;55.694;26.994;2024-01-15T12:27:35;2;86
72919;SHT30;68407;55.694;26.994;2024-01-15T12:32:35;2;86.1
72919;SHT30;68407;55.694;26.994;2024-01-15T12:37:43;2;86.2
72919;SHT30;68407;55.694;26.994;2024-01-15T12:42:47;2;86.3
72919;SHT30;68407;55.694;26.994;2024-01-15T12:47:51;2;86.3
72919;SHT30;68407;55.694;26.994;2024-01-15T12:53:23;2;86.4
72919;SHT30;68407;55.694;26.994;2024-01-15T12:58:09;2;86.1
72919;SHT30;68407;55.694;26.994;2024-01-15T13:03:23;2;86.1
72919;SHT30;68407;55.694;26.994;2024-01-15T13:07:55;1.9;86.2
72919;SHT30;68407;55.694;26.994;2024-01-15T13:13:05;1.9;86.3
72919;SHT30;68407;55.694;26.994;2024-01-15T13:18:23;1.9;86.3
72919;SHT30;68407;55.694;26.994;2024-01-15T13:23:05;1.8;86.3
72919;SHT30;68407;55.694;26.994;2024-01-15T13:27:59;1.8;86.3
72919;SHT30;68407;55.694;26.994;2024-01-15T13:33:23;1.7;86.4
72919;SHT30;68407;55.694;26.994;2024-01-15T13:38:19;1.6;86.8
72919;SHT30;68407;55.694;26.994;2024-01-15T13:43:07;1.6;87.2
72919;SHT30;68407;55.694;26.994;2024-01-15T13:48:23;1.5;87.5
72919;SHT30;68407;55.694;26.994;2024-01-15T13:52:43;1.5;87.9
72919;SHT30;68407;55.694;26.994;2024-01-15T13:57:43;1.5;88
72919;SHT30;68407;55.694;26.994;2024-01-15T14:02:35;1.5;88
72919;SHT30;68407;55.694;26.994;2024-01-15T14:07:43;1.4;88.1
72919;SHT30;68407;55.694;26.994;2024-01-15T14:13:15;1.3;88.3
72919;SHT30;68407;55.694;26.994;2024-01-15T14:18:05;1.3;88.5
72919;SHT30;68407;55.694;26.994;2024-01-15T14:22:51;1.2;88.6
72919;SHT30;68407;55.694;26.994;2024-01-15T14:28:23;1.2;88.8
72919;SHT30;68407;55.694;26.994;2024-01-15T14:32:37;1.2;88.8
72919;SHT30;68407;55.694;26.994;2024-01-15T14:38:13;1.2;88.8
72919;SHT30;68407;55.694;26.994;2024-01-15T14:42:49;1.2;88.7
72919;SHT30;68407;55.694;26.994;2024-01-15T14:48:23;1.2;88.7
72919;SHT30;68407;55.694;26.994;2024-01-15T14:53:23;1.2;88.7
72919;SHT30;68407;55.694;26.994;2024-01-15T14:58:09;1.1;88.6
72919;SHT30;68407;55.694;26.994;2024-01-15T15:03:23;1.1;88.7
72919;SHT30;68407;55.694;26.994;2024-01-15T15:07:35;1;88.7
72919;SHT30;68407;55.694;26.994;2024-01-15T15:12:35;1;88.8
72919;SHT30;68407;55.694;26.994;2024-01-15T15:17:43;1;88.8
72919;SHT30;68407;55.694;26.994;2024-01-15T15:22:35;1;88.8
72919;SHT30;68407;55.694;26.994;2024-01-15T15:27:57;1;88.9
72919;SHT30;68407;55.694;26.994;2024-01-15T15:33:23;1;88.9
72919;SHT30;68407;55.694;26.994;2024-01-15T15:37:51;1;89
72919;SHT30;68407;55.694;26.994;2024-01-15T15:43:23;1;89
72919;SHT30;68407;55.694;26.994;2024-01-15T15:48:09;1;89.1
72919;SHT30;68407;55.694;26.994;2024-01-15T15:52:51;1;89.2
72919;SHT30;68407;55.694;26.994;2024-01-15T15:58:13;1;89.2
72919;SHT30;68407;55.694;26.994;2024-01-15T16:02:57;1;89.2
72919;SHT30;68407;55.694;26.994;2024-01-15T16:07:57;1;89.2
72919;SHT30;68407;55.694;26.994;2024-01-15T16:12:47;1;89.2
72919;SHT30;68407;55.694;26.994;2024-01-15T16:18:13;0.9;89.1
72919;SHT30;68407;55.694;26.994;2024-01-15T16:23:09;0.9;89.2
72919;SHT30;68407;55.694;26.994;2024-01-15T16:28:23;1;89.1
72919;SHT30;68407;55.694;26.994;2024-01-15T16:32:35;0.9;89.1
72919;SHT30;68407;55.694;26.994;2024-01-15T16:38:13;0.9;89.2
72919;SHT30;68407;55.694;26.994;2024-01-15T16:42:59;0.9;89.3
72919;SHT30;68407;55.694;26.994;2024-01-15T16:47:55;0.9;89.4
72919;SHT30;68407;55.694;26.994;2024-01-15T16:52:59;0.8;89.5
72919;SHT30;68407;55.694;26.994;2024-01-15T16:57:35;0.9;89.6
72919;SHT30;68407;55.694;26.994;2024-01-15T17:02:43;0.9;89.6
72919;SHT30;68407;55.694;26.994;2024-01-15T17:07:35;0.8;89.6
72919;SHT30;68407;55.694;26.994;2024-01-15T17:12:39;0.6;89.8
72919;SHT30;68407;55.694;26.994;2024-01-15T17:18:23;0.6;89
72919;SHT30;68407;55.694;26.994;2024-01-15T17:23:23;0.5;89
72919;SHT30;68407;55.694;26.994;2024-01-15T17:27:35;0.5;89.1
72919;SHT30;68407;55.694;26.994;2024-01-15T17:33:03;0.5;89
72919;SHT30;68407;55.694;26.994;2024-01-15T17:38:23;0.5;88.9
72919;SHT30;68407;55.694;26.994;2024-01-15T17:43:13;0.4;88.7
72919;SHT30;68407;55.694;26.994;2024-01-15T17:48:05;0.4;88.3
72919;SHT30;68407;55.694;26.994;2024-01-15T17:53:05;0.4;87.8
72919;SHT30;68407;55.694;26.994;2024-01-15T17:57:55;0.4;87.5
72919;SHT30;68407;55.694;26.994;2024-01-15T18:03:23;0.5;87
72919;SHT30;68407;55.694;26.994;2024-01-15T18:07:59;0.5;86.9
72919;SHT30;68407;55.694;26.994;2024-01-15T18:13:15;0.5;86.7
72919;SHT30;68407;55.694;26.994;2024-01-15T18:17:59;0.5;86.6
72919;SHT30;68407;55.694;26.994;2024-01-15T18:22:53;0.4;86.6
72919;SHT30;68407;55.694;26.994;2024-01-15T18:27:49;0.5;86.6
72919;SHT30;68407;55.694;26.994;2024-01-15T18:32:35;0.5;86.6
72919;SHT30;68407;55.694;26.994;2024-01-15T18:37:35;0.5;86.6
72919;SHT30;68407;55.694;26.994;2024-01-15T18:42:33;0.5;86.8
72919;SHT30;68407;55.694;26.994;2024-01-15T18:47:55;0.5;86.9
72919;SHT30;68407;55.694;26.994;2024-01-15T18:52:51;0.5;86.9
72919;SHT30;68407;55.694;26.994;2024-01-15T18:58:23;0.5;86.8
72919;SHT30;68407;55.694;26.994;2024-01-15T19:02:43;0.4;86.8
72919;SHT30;68407;55.694;26.994;2024-01-15T19:08:05;0.4;86.9
72919;SHT30;68407;55.694;26.994;2024-01-15T19:12:43;0.4;86.9
72919;SHT30;68407;55.694;26.994;2024-01-15T19:17:55;0.3;86.9
72919;SHT30;68407;55.694;26.994;2024-01-15T19:22:33;0.3;86.9
72919;SHT30;68407;55.694;26.994;2024-01-15T19:28:03;0.3;87
72919;SHT30;68407;55.694;26.994;2024-01-15T19:33:19;0.3;87
72919;SHT30;68407;55.694;26.994;2024-01-15T19:38:19;0.2;87
72919;SHT30;68407;55.694;26.994;2024-01-15T19:42:55;0.2;87.2
72919;SHT30;68407;55.694;26.994;2024-01-15T19:48:19;0.2;87.2
72919;SHT30;68407;55.694;26.994;2024-01-15T19:52:33;0.2;87.3
72919;SHT30;68407;55.694;26.994;2024-01-15T19:58:05;0.2;87.2
72919;SHT30;68407;55.694;26.994;2024-01-15T20:02:55;0.2;87.2
72919;SHT30;68407;55.694;26.994;2024-01-15T20:07:49;0.2;87.3
72919;SHT30;68407;55.694;26.994;2024-01-15T20:12:35;0.2;87.3
72919;SHT30;68407;55.694;26.994;2024-01-15T20:17:51;0.2;87.4
72919;SHT30;68407;55.694;26.994;2024-01-15T20:22:41;0.2;87.3
72919;SHT30;68407;55.694;26.994;2024-01-15T20:27:41;0.1;87.4
72919;SHT30;68407;55.694;26.994;2024-01-15T20:33:17;0.1;87.4
72919;SHT30;68407;55.694;26.994;2024-01-15T20:37:52;0.1;87.4
72919;SHT30;68407;55.694;26.994;2024-01-15T20:43:19;0.1;87.4
72919;SHT30;68407;55.694;26.994;2024-01-15T20:48:11;0.1;87.4
72919;SHT30;68407;55.694;26.994;2024-01-15T20:53:09;0.1;87.4
72919;SHT30;68407;55.694;26.994;2024-01-15T20:57:53;0.2;87.2
72919;SHT30;68407;55.694;26.994;2024-01-15T21:03:03;0.2;87.1
72919;SHT30;68407;55.694;26.994;2024-01-15T21:08:19;0.2;87.1
72919;SHT30;68407;55.694;26.994;2024-01-15T21:13:19;0.2;87.1
72919;SHT30;68407;55.694;26.994;2024-01-15T21:17:55;0.2;87.1
72919;SHT30;68407;55.694;26.994;2024-01-15T21:23:19;0.2;87
72919;SHT30;68407;55.694;26.994;2024-01-15T21:28:21;0.2;87.1
72919;SHT30;68407;55.694;26.994;2024-01-15T21:33:05;0.2;87.1
72919;SHT30;68407;55.694;26.994;2024-01-15T21:38:21;0.2;87
72919;SHT30;68407;55.694;26.994;2024-01-15T21:42:33;0.2;87
72919;SHT30;68407;55.694;26.994;2024-01-15T21:47:43;0.1;86.9
72919;SHT30;68407;55.694;26.994;2024-01-15T21:52:41;0;87
72919;SHT30;68407;55.694;26.994;2024-01-15T21:57:41;0;87.2
72919;SHT30;68407;55.694;26.994;2024-01-15T22:02:41;-0.1;87.2
72919;SHT30;68407;55.694;26.994;2024-01-15T22:08:05;-0.1;87.1
72919;SHT30;68407;55.694;26.994;2024-01-15T22:12:49;-0.1;87.1
72919;SHT30;68407;55.694;26.994;2024-01-15T22:18:19;-0.1;87.1
72919;SHT30;68407;55.694;26.994;2024-01-15T22:22:57;0;87
72919;SHT30;68407;55.694;26.994;2024-01-15T22:27:41;0;86.9
72919;SHT30;68407;55.694;26.994;2024-01-15T22:32:33;0;86.9
72919;SHT30;68407;55.694;26.994;2024-01-15T22:37:51;0;86.9
72919;SHT30;68407;55.694;26.994;2024-01-15T22:43:09;-0.1;87.1
72919;SHT30;68407;55.694;26.994;2024-01-15T22:47:33;0;87.3
72919;SHT30;68407;55.694;26.994;2024-01-15T22:53:11;0;87.4
72919;SHT30;68407;55.694;26.994;2024-01-15T22:58:05;-0.1;87.6
72919;SHT30;68407;55.694;26.994;2024-01-15T23:03:19;-0.1;87.8
72919;SHT30;68407;55.694;26.994;2024-01-15T23:07:55;-0.1;87.7
72919;SHT30;68407;55.694;26.994;2024-01-15T23:13:09;-0.1;87.7
72919;SHT30;68407;55.694;26.994;2024-01-15T23:17:55;-0.1;87.7
72919;SHT30;68407;55.694;26.994;2024-01-15T23:22:45;-0.2;87.6
72919;SHT30;68407;55.694;26.994;2024-01-15T23:27:55;-0.1;87.6
72919;SHT30;68407;55.694;26.994;2024-01-15T23:32:45;-0.1;87.5
72919;SHT30;68407;55.694;26.994;2024-01-15T23:37:47;-0.1;87.6
72919;SHT30;68407;55.694;26.994;2024-01-15T23:42:51;-0.1;87.8
72919;SHT30;68407;55.694;26.994;2024-01-15T23:48:07;-0.1;87.8
72919;SHT30;68407;55.694;26.994;2024-01-15T23:53:19;-0.1;88
72919;SHT30;68407;55.694;26.994;2024-01-15T23:58:19;-0.1;88.2
